Time;durP1;ratioP1;P1;durP2;ratioP2;P2;SDS_P1;SDS_P2;PMS_P1;PMS_P2;Temp;Humidity;BMP_temperature;BMP_pressure;BME280_temperature;BME280_humidity;BME280_pressure;Samples;Min_cycle;Max_cycle;Signal;HPM_P1;HPM_P2
2022/08/18 00:01:12;;;;;;;100.50;63.92;;;;;;;19.92;87.24;100806.16;5096806;28;20036;-54
2022/08/18 00:03:40;;;;;;;102.78;66.28;;;;;;;19.92;87.04;100813.44;5095689;28;20444;-53
2022/08/18 00:06:07;;;;;;;108.53;65.78;;;;;;;19.83;87.40;100812.00;5096299;28;20093;-53
2022/08/18 00:08:33;;;;;;;105.80;64.53;;;;;;;19.86;87.07;100809.69;5096159;28;20118;-53
2022/08/18 00:11:04;;;;;;;104.45;64.88;;;;;;;19.83;87.08;100814.69;5096235;28;20052;-53
2022/08/18 00:13:31;;;;;;;109.20;66.95;;;;;;;19.55;89.13;100813.09;5095942;28;20079;-53
2022/08/18 00:15:58;;;;;;;112.90;69.40;;;;;;;19.52;89.42;100813.53;5095890;28;20044;-52
2022/08/18 00:18:25;;;;;;;111.15;68.85;;;;;;;19.41;90.08;100820.41;5096363;28;20076;-53
2022/08/18 00:20:52;;;;;;;111.75;68.35;;;;;;;19.56;88.99;100818.28;5095017;28;20043;-52
2022/08/18 00:23:19;;;;;;;113.75;69.35;;;;;;;19.64;88.69;100827.97;4980607;28;20429;-53
2022/08/18 00:25:46;;;;;;;110.28;66.15;;;;;;;19.77;88.04;100824.44;5095495;28;20131;-51
2022/08/18 00:28:13;;;;;;;107.38;63.20;;;;;;;19.87;87.39;100835.59;5095900;28;20036;-52
2022/08/18 00:30:40;;;;;;;109.68;65.05;;;;;;;19.64;88.18;100835.22;5093594;28;20048;-54
2022/08/18 00:33:06;;;;;;;106.88;63.50;;;;;;;19.34;89.95;100833.03;5095792;28;20048;-54
2022/08/18 00:35:36;;;;;;;112.47;64.50;;;;;;;19.37;89.68;100827.22;5095753;28;20044;-54
2022/08/18 00:38:05;;;;;;;109.22;65.47;;;;;;;19.51;89.11;100822.63;5096059;28;20080;-53
2022/08/18 00:40:39;;;;;;;102.18;63.50;;;;;;;19.53;88.88;100823.25;5095539;28;20052;-54
2022/08/18 00:43:11;;;;;;;104.95;62.75;;;;;;;19.50;88.85;100820.97;5095754;28;20051;-55
2022/08/18 00:45:42;;;;;;;98.35;61.75;;;;;;;19.35;89.32;100811.28;5095408;28;20097;-54
2022/08/18 00:48:10;;;;;;;100.72;62.28;;;;;;;19.31;89.60;100823.50;5095247;28;20044;-54
2022/08/18 00:50:50;;;;;;;103.20;61.13;;;;;;;19.35;89.09;100819.34;5095283;28;20405;-53
2022/08/18 00:53:38;;;;;;;105.75;62.45;;;;;;;19.35;88.87;100819.34;5095465;28;20082;-54
2022/08/18 00:56:23;;;;;;;102.22;62.40;;;;;;;19.36;88.91;100820.19;5095357;28;20494;-54
2022/08/18 00:59:04;;;;;;;107.35;61.65;;;;;;;19.34;88.83;100819.59;5095165;28;20127;-55
2022/08/18 01:01:33;;;;;;;99.15;61.10;;;;;;;19.27;89.01;100811.53;5094612;28;20094;-54
2022/08/18 01:04:13;;;;;;;102.32;61.90;;;;;;;19.21;89.54;100808.84;5094858;28;20040;-53
2022/08/18 01:06:47;;;;;;;99.45;61.45;;;;;;;19.16;90.12;100804.09;5095130;28;20051;-54
2022/08/18 01:09:16;;;;;;;105.43;62.80;;;;;;;19.21;89.42;100814.22;5095227;28;20493;-54
2022/08/18 01:11:44;;;;;;;100.90;62.85;;;;;;;19.24;89.84;100811.13;5093864;28;20039;-54
2022/08/18 01:14:17;;;;;;;116.20;66.03;;;;;;;19.25;90.03;100813.59;5094790;28;20401;-54
2022/08/18 01:22:48;;;;;;;112.88;66.13;;;;;;;19.17;90.10;100811.13;5016804;28;20513;-54
2022/08/18 01:26:17;;;;;;;113.38;67.70;;;;;;;19.12;90.99;100817.13;5094687;28;20072;-53
2022/08/18 01:28:05;;;;;;;126.32;73.43;;;;;;;19.27;90.88;100824.16;5094389;28;20123;-54
2022/08/18 01:30:43;;;;;;;127.18;72.50;;;;;;;19.29;91.06;100819.38;5094518;28;20062;-54
2022/08/18 01:33:11;;;;;;;133.50;76.45;;;;;;;19.35;91.05;100816.66;5094050;28;20052;-54
2022/08/18 01:35:40;;;;;;;147.70;80.95;;;;;;;19.49;90.06;100820.16;5094654;28;20105;-53
2022/08/18 01:38:07;;;;;;;162.77;85.20;;;;;;;19.34;91.42;100816.91;5093500;28;20044;-54
2022/08/18 01:40:35;;;;;;;186.30;93.95;;;;;;;19.26;92.18;100828.69;5094771;28;20093;-54
2022/08/18 01:43:02;;;;;;;211.73;100.53;;;;;;;19.16;92.75;100822.91;5094310;28;20044;-54
2022/08/18 01:45:32;;;;;;;219.98;103.28;;;;;;;19.25;92.82;100828.91;5094534;28;20040;-54
2022/08/18 01:47:59;;;;;;;235.13;106.35;;;;;;;19.34;92.40;100830.34;5094093;28;20131;-54
2022/08/18 01:50:26;;;;;;;236.60;105.63;;;;;;;19.28;92.45;100832.00;5094460;28;20037;-54
2022/08/18 01:52:53;;;;;;;223.60;106.60;;;;;;;19.29;92.38;100844.41;5094279;28;20139;-54
2022/08/18 01:55:20;;;;;;;239.30;112.60;;;;;;;19.29;91.98;100835.53;5094361;28;20067;-54
2022/08/18 01:57:46;;;;;;;204.95;98.03;;;;;;;19.29;90.94;100841.72;5094195;28;20040;-55
2022/08/18 02:00:16;;;;;;;157.68;84.43;;;;;;;19.20;91.23;100840.28;5094335;28;20036;-54
2022/08/18 02:02:43;;;;;;;116.88;66.53;;;;;;;19.16;90.43;100850.63;5092845;28;20062;-54
2022/08/18 02:05:17;;;;;;;121.00;67.97;;;;;;;19.04;91.08;100849.59;5093279;28;20063;-54
2022/08/18 02:07:43;;;;;;;104.30;61.28;;;;;;;19.13;89.96;100842.97;5094256;28;20101;-54
2022/08/18 02:10:10;;;;;;;102.32;61.30;;;;;;;19.08;89.82;100850.00;5093692;28;20066;-53
2022/08/18 02:12:39;;;;;;;101.45;61.15;;;;;;;18.91;90.82;100850.41;5093981;28;20287;-54
2022/08/18 02:15:07;;;;;;;101.47;60.28;;;;;;;18.85;90.70;100847.75;5093832;28;20127;-54
2022/08/18 02:17:39;;;;;;;108.85;61.97;;;;;;;18.70;91.25;100845.19;5093942;28;20485;-52
2022/08/18 02:20:09;;;;;;;99.85;60.58;;;;;;;18.66;91.78;100841.28;5093969;28;20124;-53
2022/08/18 02:22:36;;;;;;;104.78;58.42;;;;;;;18.63;91.40;100844.38;5048201;28;20044;-54
2022/08/18 02:25:04;;;;;;;103.32;58.53;;;;;;;18.57;91.72;100841.50;5007508;28;20044;-53
2022/08/18 02:27:31;;;;;;;113.60;59.50;;;;;;;18.46;92.38;100834.00;5094019;28;20073;-54
2022/08/18 02:29:59;;;;;;;110.00;60.20;;;;;;;18.35;93.21;100823.88;5093308;28;20431;-52
2022/08/18 02:32:26;;;;;;;130.43;63.25;;;;;;;18.33;93.34;100821.38;5093799;28;20044;-53
2022/08/18 02:34:53;;;;;;;156.02;69.95;;;;;;;18.27;93.45;100806.09;5092931;28;20554;-54
2022/08/18 02:37:20;;;;;;;148.10;70.50;;;;;;;18.31;93.48;100801.97;5093512;28;20405;-54
2022/08/18 02:39:47;;;;;;;172.88;72.95;;;;;;;18.36;92.98;100806.75;5093419;28;20040;-55
2022/08/18 02:42:15;;;;;;;184.85;76.60;;;;;;;18.38;92.97;100804.69;5093509;28;20046;-53
2022/08/18 02:44:41;;;;;;;173.65;77.90;;;;;;;18.39;93.08;100815.22;5093434;28;20077;-54
2022/08/18 02:47:08;;;;;;;171.48;73.25;;;;;;;18.44;92.87;100817.28;5093418;28;20405;-53
2022/08/18 02:49:36;;;;;;;175.10;73.07;;;;;;;18.54;92.38;100814.22;5093133;28;20135;-54
2022/08/18 02:52:03;;;;;;;184.98;73.00;;;;;;;18.61;91.56;100809.66;5093177;28;20065;-53
2022/08/18 02:54:30;;;;;;;169.00;70.95;;;;;;;18.51;92.19;100811.91;5093339;28;20044;-53
2022/08/18 02:56:57;;;;;;;183.25;74.50;;;;;;;18.43;92.55;100810.25;5093175;28;20044;-54
2022/08/18 02:59:26;;;;;;;209.88;86.43;;;;;;;18.38;92.96;100810.03;5093359;28;20135;-54
2022/08/18 03:01:55;;;;;;;246.48;96.40;;;;;;;18.31;93.27;100809.19;5093115;28;20047;-54
2022/08/18 03:04:26;;;;;;;277.92;107.47;;;;;;;18.26;93.90;100809.78;5092708;28;20044;-54
2022/08/18 03:06:57;;;;;;;274.40;107.43;;;;;;;18.21;94.28;100810.41;5093244;28;20127;-53
2022/08/18 03:09:24;;;;;;;246.57;98.68;;;;;;;18.31;94.15;100809.19;5093486;28;20089;-54
2022/08/18 03:11:51;;;;;;;224.23;90.43;;;;;;;18.38;93.78;100808.19;5093028;28;20044;-54
2022/08/18 03:14:18;;;;;;;227.00;94.50;;;;;;;18.51;92.52;100807.38;5093056;28;20044;-54
2022/08/18 03:16:46;;;;;;;200.43;83.80;;;;;;;18.39;93.46;100807.16;5093124;28;20052;-54
2022/08/18 03:19:15;;;;;;;185.05;81.70;;;;;;;18.35;93.78;100808.56;5092333;28;20036;-54
2022/08/18 03:21:44;;;;;;;159.77;68.95;;;;;;;18.39;93.58;100817.91;5092868;28;20397;-54
2022/08/18 03:24:12;;;;;;;144.80;69.07;;;;;;;18.45;93.55;100802.81;4974687;28;20068;-54
2022/08/18 03:26:42;;;;;;;137.10;64.70;;;;;;;18.46;93.44;100812.53;5093243;28;20493;-54
2022/08/18 03:29:10;;;;;;;126.20;59.80;;;;;;;18.49;93.34;100822.03;5092845;28;20071;-54
2022/08/18 03:31:37;;;;;;;114.38;53.28;;;;;;;18.51;93.28;100819.97;5092589;28;20044;-53
2022/08/18 03:34:07;;;;;;;101.40;50.72;;;;;;;18.46;93.80;100812.53;5092827;28;20535;-54
2022/08/18 03:36:35;;;;;;;96.07;47.92;;;;;;;18.52;93.06;100813.56;5096436;28;20126;-53
2022/08/18 03:39:06;;;;;;;92.32;48.95;;;;;;;18.46;93.62;100809.84;5097544;28;20062;-54
2022/08/18 03:41:34;;;;;;;95.47;47.70;;;;;;;18.55;93.20;100808.59;5096932;28;20040;-54
2022/08/18 03:44:02;;;;;;;100.85;47.65;;;;;;;18.56;93.54;100810.28;5096714;28;20051;-54
2022/08/18 03:46:29;;;;;;;89.20;48.35;;;;;;;18.73;91.62;100824.13;5096631;28;20054;-50
2022/08/18 03:48:57;;;;;;;91.65;47.75;;;;;;;18.66;92.12;100825.97;5094995;28;20497;-50
2022/08/18 03:51:27;;;;;;;87.63;47.42;;;;;;;18.73;91.51;100824.13;5096721;28;20500;-53
2022/08/18 03:54:00;;;;;;;95.53;47.45;;;;;;;18.61;92.01;100825.78;5096565;28;20051;-53
2022/08/18 03:56:29;;;;;;;88.32;47.58;;;;;;;18.72;91.94;100821.63;5096962;28;20093;-53
2022/08/18 03:58:59;;;;;;;90.65;47.63;;;;;;;18.63;92.01;100812.97;5096482;28;20040;-54
2022/08/18 04:01:29;;;;;;;85.97;47.28;;;;;;;18.78;91.86;100816.28;5096591;28;20066;-53
2022/08/18 04:04:00;;;;;;;86.07;46.10;;;;;;;18.85;91.15;100810.13;5095477;28;20044;-53
2022/08/18 04:06:32;;;;;;;89.68;46.60;;;;;;;18.95;90.07;100811.34;5096117;28;20453;-53
2022/08/18 04:09:00;;;;;;;;;;;;;;;18.97;89.78;100805.75;5096649;28;20529;-53
2022/08/18 04:11:30;;;;;;;87.07;44.00;;;;;;;18.81;90.67;100809.72;5096278;28;19927;-54
2022/08/18 04:13:57;;;;;;;77.85;43.83;;;;;;;18.80;91.32;100810.69;5095779;28;20043;-54
2022/08/18 04:16:26;;;;;;;81.72;44.55;;;;;;;18.82;91.14;100807.84;5096028;28;20075;-54
2022/08/18 04:18:55;;;;;;;80.95;44.50;;;;;;;18.87;90.94;100810.75;5094667;28;20040;-54
2022/08/18 04:21:23;;;;;;;97.28;45.85;;;;;;;18.92;90.59;100810.94;5095817;28;20095;-54
2022/08/18 04:23:49;;;;;;;85.75;44.90;;;;;;;18.98;89.48;100824.38;4976169;28;20140;-54
2022/08/18 04:26:18;;;;;;;89.57;45.47;;;;;;;19.04;89.30;100825.41;5095869;28;20102;-53
2022/08/18 04:28:45;;;;;;;80.75;44.22;;;;;;;18.87;90.50;100816.94;5095982;28;20074;-54
2022/08/18 04:31:14;;;;;;;82.10;44.25;;;;;;;19.00;90.10;100816.09;5095157;28;20044;-53
2022/08/18 04:33:41;;;;;;;81.55;43.72;;;;;;;19.04;89.40;100811.97;5095724;28;20040;-53
2022/08/18 04:36:10;;;;;;;87.78;43.90;;;;;;;19.06;89.29;100814.44;5094624;28;20445;-53
2022/08/18 04:38:38;;;;;;;75.35;43.40;;;;;;;19.22;88.27;100821.25;5095878;28;20067;-54
2022/08/18 04:41:05;;;;;;;80.68;42.60;;;;;;;19.29;87.66;100817.50;5095462;28;20044;-55
2022/08/18 04:43:32;;;;;;;82.93;43.50;;;;;;;19.23;88.28;100818.38;5095637;28;20046;-54
2022/08/18 04:46:00;;;;;;;90.78;47.45;;;;;;;19.07;89.10;100816.09;5093727;28;20047;-55
2022/08/18 04:48:32;;;;;;;92.75;46.78;;;;;;;18.99;90.13;100819.81;5094004;28;20059;-56
2022/08/18 04:51:10;;;;;;;144.27;69.80;;;;;;;19.22;88.55;100834.69;5095262;28;20048;-51
2022/08/18 04:53:46;;;;;;;149.63;70.28;;;;;;;19.16;88.80;100833.66;5093931;28;20044;-55
2022/08/18 04:56:21;;;;;;;145.38;65.07;;;;;;;19.06;89.27;100834.06;5095250;28;20054;-54
2022/08/18 04:58:51;;;;;;;166.98;76.85;;;;;;;19.14;88.64;100839.25;5095524;28;20039;-53
2022/08/18 05:01:20;;;;;;;173.23;74.53;;;;;;;18.83;90.47;100841.72;5094793;28;20078;-54
2022/08/18 05:03:49;;;;;;;140.13;65.13;;;;;;;18.93;90.82;100839.47;5095090;28;20123;-55
2022/08/18 05:06:18;;;;;;;107.13;55.65;;;;;;;19.20;89.02;100844.84;5094861;28;20109;-55
2022/08/18 05:08:47;;;;;;;84.72;45.17;;;;;;;19.12;89.63;100840.50;5095270;28;20459;-54
2022/08/18 05:11:14;;;;;;;80.65;45.70;;;;;;;18.97;90.10;100841.56;5094655;28;20036;-53
2022/08/18 05:13:41;;;;;;;84.97;42.35;;;;;;;19.08;89.78;100848.16;5094218;28;20468;-55
2022/08/18 05:16:08;;;;;;;80.78;44.25;;;;;;;19.07;89.55;100845.69;5094895;28;20048;-54
2022/08/18 05:18:39;;;;;;;80.53;44.90;;;;;;;19.00;90.40;100848.34;5094678;28;20063;-54
2022/08/18 05:21:07;;;;;;;82.47;44.30;;;;;;;19.14;89.87;100849.19;5094836;28;20043;-54
2022/08/18 05:23:34;;;;;;;88.80;45.83;;;;;;;19.24;89.05;100856.81;4973836;28;20051;-53
2022/08/18 05:26:02;;;;;;;85.45;44.53;;;;;;;18.96;90.57;100855.19;5094332;28;20071;-54
2022/08/18 05:28:30;;;;;;;79.72;43.95;;;;;;;19.08;90.14;100852.69;5094408;28;20073;-56
2022/08/18 05:30:57;;;;;;;82.32;45.33;;;;;;;19.13;89.66;100860.97;5094147;28;20089;-55
2022/08/18 05:33:24;;;;;;;81.50;44.28;;;;;;;18.98;90.67;100850.44;5093749;28;20044;-55
2022/08/18 05:36:00;;;;;;;83.53;44.75;;;;;;;19.09;90.19;100849.81;5093043;28;20501;-54
2022/08/18 05:39:07;;;;;;;86.57;45.65;;;;;;;19.16;89.85;100852.50;5094355;28;20501;-54
2022/08/18 05:41:40;;;;;;;83.55;44.33;;;;;;;19.18;89.09;100863.88;5092802;28;20052;-54
2022/08/18 05:44:13;;;;;;;89.63;45.63;;;;;;;18.94;90.57;100866.16;5093601;28;20047;-54
2022/08/18 05:46:51;;;;;;;93.38;45.38;;;;;;;19.21;89.86;100868.84;5093694;28;20108;-54
2022/08/18 05:49:19;;;;;;;93.05;47.15;;;;;;;19.28;89.02;100875.03;5092210;28;20056;-53
2022/08/18 05:51:51;;;;;;;92.22;46.70;;;;;;;19.18;89.25;100878.13;5093298;28;20456;-54
2022/08/18 05:57:14;;;;;;;82.05;43.22;;;;;;;19.25;89.45;100878.13;5093333;28;20048;-54
2022/08/18 05:59:43;;;;;;;90.40;46.28;;;;;;;19.32;88.54;100886.22;5093798;28;20043;-55
2022/08/18 06:02:17;;;;;;;86.05;45.65;;;;;;;19.01;90.32;100878.75;5094072;28;20052;-55
2022/08/18 06:04:52;;;;;;;85.22;44.95;;;;;;;19.12;90.14;100886.22;5091938;28;20123;-55
2022/08/18 06:07:29;;;;;;;88.10;43.58;;;;;;;19.12;89.73;100883.53;5073893;28;20056;-54
2022/08/18 06:09:56;;;;;;;80.90;42.75;;;;;;;19.28;88.95;100890.31;5073542;28;20041;-54
2022/08/18 06:12:30;;;;;;;81.22;44.30;;;;;;;19.31;88.95;100896.13;5073413;28;20444;-54
2022/08/18 06:15:05;;;;;;;86.72;45.13;;;;;;;19.11;89.30;100887.25;5073065;28;20411;-54
2022/08/18 06:20:28;;;;;;;79.13;42.67;;;;;;;19.17;89.70;100894.47;5110902;27;20384;-54
2022/08/18 06:23:13;;;;;;;84.75;44.42;;;;;;;19.20;89.05;100896.75;4992114;28;20400;-54
2022/08/18 06:26:12;;;;;;;82.63;44.47;;;;;;;19.21;89.67;100898.41;5110726;28;20043;-54
2022/08/18 06:28:56;;;;;;;84.03;45.15;;;;;;;19.25;89.23;100901.53;5110712;28;20058;-54
2022/08/18 06:32:04;;;;;;;95.85;45.88;;;;;;;19.29;88.59;100903.56;5109971;28;20054;-54
2022/08/18 06:35:10;;;;;;;87.13;46.00;;;;;;;19.07;89.94;100904.81;5110683;28;20131;-54
2022/08/18 06:40:39;;;;;;;92.25;43.97;;;;;;;19.17;89.75;100905.22;5110386;28;20047;-54
2022/08/18 06:43:10;;;;;;;85.03;43.05;;;;;;;19.24;89.45;100914.13;5111008;28;20052;-55
2022/08/18 06:45:40;;;;;;;89.25;45.83;;;;;;;19.42;88.83;100913.50;5110635;28;20048;-55
2022/08/18 06:48:20;;;;;;;83.60;43.40;;;;;;;19.54;87.58;100905.63;5110739;28;20064;-55
2022/08/18 06:50:55;;;;;;;97.13;47.83;;;;;;;19.64;87.36;100919.47;5110323;28;20047;-54
2022/08/18 06:53:42;;;;;;;94.60;49.92;;;;;;;19.56;87.26;100920.50;5110576;28;20056;-55
2022/08/18 06:56:46;;;;;;;97.75;49.33;;;;;;;19.57;87.57;100924.03;5110203;28;20086;-55
2022/08/18 06:59:31;;;;;;;106.60;50.13;;;;;;;19.48;87.95;100920.75;5110096;28;20028;-55
2022/08/18 07:02:18;;;;;;;110.15;53.72;;;;;;;19.38;88.18;100926.53;5110323;28;20058;-55
2022/08/18 07:05:06;;;;;;;100.10;50.38;;;;;;;19.37;88.35;100927.59;5108737;28;20051;-55
2022/08/18 07:07:38;;;;;;;112.57;53.13;;;;;;;19.42;88.56;100928.81;5089462;28;20481;-55
2022/08/18 07:10:28;;;;;;;131.40;58.03;;;;;;;19.39;88.51;100924.66;5093448;28;20045;-55
2022/08/18 07:13:14;;;;;;;126.90;58.25;;;;;;;19.31;88.83;100911.44;5109059;28;20109;-55
2022/08/18 07:15:42;;;;;;;128.55;59.38;;;;;;;19.36;89.89;100922.41;5110293;28;20071;-55
2022/08/18 07:18:10;;;;;;;163.23;72.47;;;;;;;19.52;88.34;100921.16;5109517;28;20117;-54
2022/08/18 07:20:46;;;;;;;162.77;73.88;;;;;;;19.49;88.63;100922.38;5108885;28;20117;-54
2022/08/18 07:23:27;;;;;;;145.98;65.43;;;;;;;19.51;88.44;100923.00;4983504;28;20447;-55
2022/08/18 07:26:07;;;;;;;137.20;58.60;;;;;;;19.50;88.48;100926.75;5110145;28;20074;-55
2022/08/18 07:28:39;;;;;;;144.80;63.42;;;;;;;19.61;87.70;100925.28;5109613;28;20511;-55
2022/08/18 07:31:30;;;;;;;173.50;77.22;;;;;;;19.65;87.34;100928.38;5098108;28;20443;-55
2022/08/18 07:34:03;;;;;;;136.57;66.93;;;;;;;19.67;86.92;100921.75;5095838;28;20122;-54
2022/08/18 07:36:40;;;;;;;136.30;61.38;;;;;;;19.55;87.80;100916.19;5096061;28;20047;-54
2022/08/18 07:39:19;;;;;;;120.38;54.55;;;;;;;19.55;87.55;100910.81;5096087;28;20106;-54
2022/08/18 07:41:56;;;;;;;118.50;50.78;;;;;;;19.61;88.40;100908.28;5095897;28;20401;-55
2022/08/18 07:47:17;;;;;;;94.18;46.28;;;;;;;19.92;85.90;100904.97;5111246;27;20884;-54
2022/08/18 07:49:46;;;;;;;90.43;45.75;;;;;;;19.84;86.32;100906.00;5092975;28;20047;-55
2022/08/18 07:52:31;;;;;;;83.78;42.60;;;;;;;19.93;86.43;100902.03;5111302;28;20048;-55
2022/08/18 07:55:25;;;;;;;75.72;40.85;;;;;;;19.93;85.18;100899.34;5110806;28;20047;-54
2022/08/18 07:58:19;;;;;;;68.05;38.50;;;;;;;19.88;84.06;100896.47;5110805;28;20047;-54
2022/08/18 08:00:54;;;;;;;73.40;38.22;;;;;;;20.03;83.61;100898.91;5110810;28;20036;-54
2022/08/18 08:04:03;;;;;;;67.70;38.20;;;;;;;20.19;83.20;100911.03;5110473;28;20061;-55
2022/08/18 08:06:37;;;;;;;72.22;37.83;;;;;;;20.07;82.68;100924.38;5110400;28;20043;-56
2022/08/18 08:09:23;;;;;;;75.63;38.05;;;;;;;20.36;81.34;100919.50;5110997;28;20052;-55
2022/08/18 08:14:50;;;;;;;66.70;39.08;;;;;;;20.26;81.86;100921.81;5110906;27;20372;-54
2022/08/18 08:17:33;;;;;;;73.93;38.83;;;;;;;20.43;82.15;100922.13;5111111;28;20075;-54
2022/08/18 08:23:20;;;;;;;70.68;37.97;;;;;;;20.71;79.40;100930.72;5001935;27;21343;-56
2022/08/18 08:26:01;;;;;;;68.07;36.92;;;;;;;20.66;78.67;100932.41;5110592;28;20497;-55
2022/08/18 08:28:48;;;;;;;69.47;38.57;;;;;;;20.51;79.18;100940.75;5111294;28;20054;-55
2022/08/18 08:36:46;;;;;;;67.03;37.72;;;;;;;20.63;78.36;100944.47;5110852;27;20381;-54
2022/08/18 08:39:23;;;;;;;73.70;37.20;;;;;;;20.56;79.01;100940.94;5111067;28;20401;-54
2022/08/18 08:41:59;;;;;;;73.50;39.25;;;;;;;20.65;79.27;100947.75;5111174;28;20295;-54
2022/08/18 08:44:34;;;;;;;78.13;40.03;;;;;;;20.72;78.24;100953.13;5093543;28;20505;-53
2022/08/18 08:47:07;;;;;;;73.35;39.92;;;;;;;20.66;78.92;100952.09;5111045;28;20052;-53
2022/08/18 08:49:41;;;;;;;81.68;43.17;;;;;;;20.63;79.60;100951.69;5109933;28;20044;-54
2022/08/18 08:54:55;;;;;;;89.93;49.10;;;;;;;20.61;79.55;100956.47;5111233;27;20376;-55
2022/08/18 08:57:33;;;;;;;84.93;45.25;;;;;;;20.58;80.15;100963.09;5111280;28;20044;-54
2022/08/18 09:00:08;;;;;;;77.43;43.97;;;;;;;20.43;81.21;100954.47;5111222;28;20123;-55
2022/08/18 09:02:53;;;;;;;74.72;41.97;;;;;;;20.41;80.34;100951.16;5111112;28;20086;-55
2022/08/18 09:05:26;;;;;;;78.65;44.35;;;;;;;20.25;80.95;100952.50;5110068;28;20269;-54
2022/08/18 09:08:21;;;;;;;82.57;43.67;;;;;;;20.38;80.56;100943.53;5109959;28;20104;-54
2022/08/18 09:11:17;;;;;;;78.05;40.22;;;;;;;20.51;79.84;100955.03;5110719;28;20432;-54
2022/08/18 09:19:44;;;;;;;63.53;33.22;;;;;;;20.76;77.94;100942.75;5111011;27;20350;-53
2022/08/18 09:22:41;;;;;;;59.42;35.08;;;;;;;20.86;76.17;100940.38;5111356;28;20146;-53
2022/08/18 09:25:28;;;;;;;56.08;31.55;;;;;;;20.89;76.43;100940.75;5009579;28;20514;-52
2022/08/18 09:28:10;;;;;;;58.28;31.48;;;;;;;21.23;74.77;100938.66;5110922;28;20093;-53
2022/08/18 09:31:04;;;;;;;58.45;34.42;;;;;;;21.28;73.49;100936.13;5110314;28;20489;-53
2022/08/18 09:33:51;;;;;;;57.85;34.20;;;;;;;21.29;72.76;100929.69;5110584;28;20450;-52
2022/08/18 09:36:58;;;;;;;57.45;32.97;;;;;;;21.22;72.67;100931.59;5111210;28;20047;-53
2022/08/18 09:42:35;;;;;;;46.45;25.60;;;;;;;21.67;71.75;100936.03;5110655;28;20446;-53
2022/08/18 09:45:07;;;;;;;43.42;26.27;;;;;;;21.93;68.53;100942.19;5110650;28;20492;-53
2022/08/18 09:52:52;;;;;;;43.00;25.50;;;;;;;21.92;68.11;100941.38;5111210;27;20873;-53
2022/08/18 09:58:20;;;;;;;29.33;18.83;;;;;;;22.02;66.59;100944.34;5111127;27;20351;-54
2022/08/18 10:01:28;;;;;;;33.22;17.15;;;;;;;21.88;66.90;100942.03;5110807;28;20040;-52
2022/08/18 10:04:19;;;;;;;30.10;18.00;;;;;;;21.66;67.68;100942.47;5110483;28;20048;-53
2022/08/18 10:06:48;;;;;;;26.33;15.55;;;;;;;21.76;67.59;100944.66;5110564;28;20040;-53
2022/08/18 10:09:54;;;;;;;28.00;17.00;;;;;;;21.66;68.22;100945.16;5111213;28;20554;-54
2022/08/18 10:12:47;;;;;;;23.92;15.25;;;;;;;21.96;67.98;100944.47;5110636;28;20043;-54
2022/08/18 10:15:25;;;;;;;28.38;16.92;;;;;;;22.14;66.13;100944.44;5110428;28;20052;-53
2022/08/18 10:18:23;;;;;;;25.13;16.27;;;;;;;22.24;64.94;100943.91;5111088;28;20543;-53
2022/08/18 10:23:49;;;;;;;27.38;15.73;;;;;;;22.47;64.08;100942.44;4997131;27;20907;-54
2022/08/18 10:26:38;;;;;;;;;;;;;;;22.76;63.63;100938.06;5111550;28;20044;-53
2022/08/18 10:34:47;;;;;;;34.50;17.67;;;;;;;22.72;63.00;100931.44;5110200;27;20363;-58
2022/08/18 10:40:12;;;;;;;28.77;16.40;;;;;;;22.96;62.02;100938.59;5108775;27;20351;-58
2022/08/18 10:42:56;;;;;;;23.50;15.00;;;;;;;22.83;61.99;100935.25;5103091;28;20058;-57
2022/08/18 10:45:29;;;;;;;35.03;21.33;;;;;;;23.03;61.48;100927.66;5089678;28;20071;-58
2022/08/18 10:48:08;;;;;;;30.55;19.02;;;;;;;23.00;61.33;100925.41;5089805;28;20120;-58
2022/08/18 10:50:42;;;;;;;24.00;15.07;;;;;;;23.08;62.10;100925.09;5091167;28;20040;-57
2022/08/18 10:53:23;;;;;;;24.13;15.27;;;;;;;23.16;61.66;100926.66;5089300;28;20040;-57
2022/08/18 10:56:10;;;;;;;24.50;15.25;;;;;;;23.21;61.20;100931.38;5096746;28;20580;-57
2022/08/18 10:59:04;;;;;;;28.60;16.42;;;;;;;23.15;60.65;100925.81;5114226;27;20043;-57
2022/08/18 11:02:01;;;;;;;33.67;18.77;;;;;;;23.17;59.88;100923.69;5108153;28;20052;-58
2022/08/18 11:04:41;;;;;;;30.85;15.95;;;;;;;23.21;61.20;100915.13;5099440;28;20054;-58
2022/08/18 11:07:14;;;;;;;29.23;16.27;;;;;;;23.35;61.19;100905.72;5100250;28;20044;-58
2022/08/18 11:09:42;;;;;;;27.85;17.85;;;;;;;23.52;59.47;100895.84;5090062;28;20040;-58
2022/08/18 11:12:13;;;;;;;27.67;16.10;;;;;;;23.80;59.60;100897.00;5090209;28;20048;-59
2022/08/18 11:15:06;;;;;;;28.98;16.33;;;;;;;23.93;57.50;100890.50;5089423;28;20375;-63
2022/08/18 11:17:48;;;;;;;30.48;19.42;;;;;;;23.93;58.46;100893.22;5112109;28;20058;-58
2022/08/18 11:20:19;;;;;;;30.33;17.77;;;;;;;23.88;57.77;100896.63;5131148;27;20054;-57
2022/08/18 11:22:53;;;;;;;48.28;19.65;;;;;;;23.87;59.64;100900.41;4998420;28;20652;-58
2022/08/18 11:25:31;;;;;;;26.08;15.85;;;;;;;23.90;58.20;100894.53;5130267;27;20051;-58
2022/08/18 11:27:59;;;;;;;28.95;15.25;;;;;;;23.92;57.59;100891.56;5130824;27;20047;-58
2022/08/18 11:30:33;;;;;;;26.48;15.45;;;;;;;24.01;58.83;100900.97;5130764;27;20074;-58
2022/08/18 11:33:00;;;;;;;23.35;13.55;;;;;;;24.12;60.84;100897.41;5130589;27;20049;-58
2022/08/18 11:35:31;;;;;;;23.40;13.85;;;;;;;24.03;58.10;100888.03;5130026;27;20126;-57
2022/08/18 11:38:02;;;;;;;25.80;15.35;;;;;;;24.07;57.63;100886.47;5130406;28;20056;-57
2022/08/18 11:40:37;;;;;;;21.38;14.85;;;;;;;24.26;58.78;100891.69;5130429;27;20075;-58
2022/08/18 11:43:33;;;;;;;22.98;13.73;;;;;;;24.18;57.81;100883.97;5129554;28;20100;-58
2022/08/18 11:46:20;;;;;;;25.52;13.82;;;;;;;24.14;57.71;100873.59;5130456;27;20578;-58
2022/08/18 11:48:49;;;;;;;22.23;13.45;;;;;;;24.23;57.74;100876.75;5130228;27;20040;-58
2022/08/18 11:51:32;;;;;;;22.13;14.13;;;;;;;24.15;59.82;100874.41;5115751;28;20081;-58
2022/08/18 11:54:20;;;;;;;25.60;12.63;;;;;;;23.97;58.95;100878.13;5116330;28;20032;-58
2022/08/18 11:56:47;;;;;;;26.67;17.40;;;;;;;23.78;63.77;100869.31;5116231;28;20052;-58
2022/08/18 11:59:31;;;;;;;25.08;15.40;;;;;;;23.81;59.35;100876.97;5116446;28;20040;-58
2022/08/18 12:01:58;;;;;;;26.73;15.30;;;;;;;24.06;64.29;100875.88;5115965;28;20112;-58
2022/08/18 12:04:36;;;;;;;21.42;13.80;;;;;;;24.17;64.45;100876.91;5091979;28;20048;-58
2022/08/18 12:07:08;;;;;;;30.15;16.60;;;;;;;24.16;64.19;100876.09;5085691;28;20052;-58
2022/08/18 12:12:24;;;;;;;25.50;17.20;;;;;;;23.89;61.44;100873.91;5107203;27;20384;-57
2022/08/18 12:15:13;;;;;;;25.52;15.00;;;;;;;23.72;59.39;100870.25;5110252;28;20081;-57
2022/08/18 12:17:45;;;;;;;26.02;18.63;;;;;;;23.69;61.79;100874.28;5110099;28;20059;-57
2022/08/18 12:20:14;;;;;;;36.60;20.92;;;;;;;23.52;60.34;100876.91;5110443;28;20374;-57
2022/08/18 12:22:44;;;;;;;30.77;20.88;;;;;;;23.46;61.04;100877.81;4990346;28;20460;-57
2022/08/18 12:25:15;;;;;;;36.08;23.02;;;;;;;23.42;63.64;100889.38;5109978;28;20090;-59
2022/08/18 12:27:43;;;;;;;41.97;23.20;;;;;;;23.23;60.04;100894.06;5110175;28;20044;-59
2022/08/18 12:30:11;;;;;;;38.13;23.00;;;;;;;23.32;60.25;100896.22;5107948;28;20104;-59
2022/08/18 12:32:38;;;;;;;32.08;21.85;;;;;;;23.34;62.69;100896.78;5109641;28;20044;-59
2022/08/18 12:35:08;;;;;;;33.38;20.83;;;;;;;23.34;63.59;100907.63;5108642;28;20442;-59
2022/08/18 12:37:37;;;;;;;30.48;22.10;;;;;;;23.24;61.15;100920.09;5109859;28;20055;-59
2022/08/18 12:40:24;;;;;;;33.17;23.25;;;;;;;23.45;60.02;100929.50;5109215;28;20504;-58
2022/08/18 12:42:51;;;;;;;33.13;22.52;;;;;;;23.31;61.80;100939.75;5109640;28;20108;-59